Latest Coastal Weather Observations for St Lawrence

IDQ60701

Issued at 7:31 am EST Thursday 27 April 2017 (issued every 10 minutes, with the page automatically refreshed every 10 minutes)

About coastal observations | Map of coastal stations | Coastal observations for QLD | Marine services | Other Formats
Station Details ID: 033210 Name: ST LAWRENCE Lat: -22.35 Lon: 149.52 Height: 9.19 m
Data from the previous 72 hours. | See also: Recent months at St Lawrence
Date/Time
EST
Temp
°C
Wind Pressure Rain since
9am
mm
Weather Cloud Vis
km
Sea
Height
m
Swell
Dir  Spd
kts
Gust
kts
hPa Trend Height
m
Period
s
Dir
27/07:30am 21.5 S 9 15 1013.6 - 0.0 - - - - - - -
27/07:00am 21.2 S 8 14 1013.1 - 0.0 - - - - - - -
27/06:30am 21.4 S 7 11 1012.8 - 0.0 - - - - - - -
27/06:00am 21.5 S 6 9 1012.3 - 0.0 - - - - - - -
27/05:30am 21.5 S 5 8 1012.2 - 0.0 - - - - - - -
27/05:00am 21.2 S 4 7 1011.8 - 0.0 - - - - - - -
27/04:30am 21.1 S 4 6 1011.4 - 0.0 - - - - - - -
27/04:00am 20.8 S 4 6 1011.3 - 0.0 - - - - - - -
27/03:30am 20.6 WSW 4 5 1011.4 - 0.0 - - - - - - -
27/03:00am 20.9 WSW 1 3 1011.2 - 0.0 - - - - - - -
27/02:30am 21.3 CALM 0 2 1011.5 - 0.0 - - - - - - -
27/02:00am 21.5 S 6 9 1011.6 - 0.0 - - - - - - -
27/01:30am 20.7 S 7 12 1011.8 - 0.0 - - - - - - -
27/01:00am 20.0 WSW 3 6 1011.3 - 0.0 - - - - - - -
27/12:30am 20.1 CALM 0 3 1011.2 - 0.0 - - - - - - -
27/12:00am 20.2 CALM 0 0 1011.5 - 0.0 - - - - - - -
 
Date/Time
EST
Temp
°C
Wind Pressure Rain since
9am
mm
Weather Cloud Vis
km
Sea
Height
m
Swell
Dir  Spd
kts
Gust
kts
hPa Trend Height
m
Period
s
Dir
26/11:30pm 20.6 CALM 0 0 1011.7 - 0.0 - - - - - - -
26/11:00pm 21.1 CALM 0 0 1012.0 - 0.0 - - - - - - -
26/10:30pm 21.6 N 4 5 1012.1 - 0.0 - - - - - - -
26/10:00pm 21.9 N 4 5 1012.2 - 0.0 - - - - - - -
26/09:30pm 22.1 NNE 3 4 1012.1 - 0.0 - - - - - - -
26/09:00pm 22.5 NNE 3 5 1012.1 - 0.0 - - - - - - -
26/08:30pm 22.9 NNE 5 7 1012.0 - 0.0 - - - - - - -
26/08:00pm 23.1 NNE 5 6 1011.9 - 0.0 - - - - - - -
26/07:30pm 23.3 NNE 6 8 1011.6 - 0.0 - - - - - - -
26/07:00pm 23.6 NNE 6 9 1011.3 - 0.0 - - - - - - -
26/06:30pm 23.9 NNE 5 7 1011.1 - 0.0 - - - - - - -
26/06:00pm 24.2 NNE 6 10 1010.9 - 0.0 - - - - - - -
26/05:30pm 24.7 NNE 7 10 1010.5 - 0.0 - - - - - - -
26/05:00pm 25.6 NNE 9 13 1010.4 - 0.0 - - - - - - -
26/04:30pm 26.3 NNE 9 13 1010.4 - 0.0 - - - - - - -
26/04:00pm 26.9 NE 9 12 1010.3 - 0.0 - - - - - - -
26/03:30pm 27.1 NE 9 12 1010.1 - 0.0 - - - - - - -
26/03:00pm 27.7 NNE 9 12 1010.1 - 0.0 - - - - - - -
26/02:30pm 27.5 NNE 10 13 1010.4 - 0.0 - - - - - - -
26/02:00pm 27.5 NNE 9 13 1010.9 - 0.0 - - - - - - -
26/01:30pm 28.0 NNE 9 12 1011.2 - 0.0 - - - - - - -
26/01:00pm 27.4 NNE 8 10 1011.7 - 0.0 - - - - - - -
26/12:30pm 27.6 NNE 8 11 1012.1 - 0.0 - - - - - - -
26/12:00pm 27.8 NNE 7 9 1012.9 - 0.0 - - - - - - -
26/11:30am 27.5 NE 4 6 1013.4 - 0.0 - - - - - - -
26/11:00am 26.8 E 2 5 1014.1 - 0.0 - - - - - - -
26/10:30am 26.5 ENE 4 7 1014.5 - 0.0 - - - - - - -
26/10:00am 25.7 N 3 5 1015.0 - 0.0 - - - - - - -
26/09:30am 24.7 N 3 5 1015.2 - 0.0 - - - - - - -
26/09:00am 24.1 CALM 0 0 1015.2 - 0.0 - - - - - - -
26/08:30am 21.7 SSW 3 4 1015.3 - 0.0 - - - - - - -
26/08:00am 20.2 S 2 4 1015.1 - 0.0 - - - - - - -
26/07:30am 19.0 CALM 0 1 1014.9 - 0.0 - - - - - - -
26/07:00am 18.2 SW 1 3 1014.6 - 0.0 - - - - - - -
26/06:30am 17.3 CALM 0 0 1014.5 - 0.0 - - - - - - -
26/06:00am 17.4 CALM 0 0 1014.1 - 0.0 - - - - - - -
26/05:30am 17.3 SW 1 3 1013.9 - 0.0 - - - - - - -
26/05:00am 17.6 SW 3 4 1013.9 - 0.0 - - - - - - -
26/04:30am 17.8 SW 3 4 1013.8 - 0.0 - - - - - - -
26/04:00am 17.9 WSW 1 3 1013.9 - 0.0 - - - - - - -
26/03:30am 17.9 CALM 0 2 1013.9 - 0.0 - - - - - - -
26/03:00am 17.9 WNW 1 5 1014.0 - 0.0 - - - - - - -
26/02:30am 18.6 SSW 1 3 1014.4 - 0.0 - - - - - - -
26/02:00am 19.1 SW 3 4 1014.7 - 0.0 - - - - - - -
26/01:30am 19.0 SW 3 3 1014.8 - 0.0 - - - - - - -
26/01:00am 19.0 WSW 3 4 1014.9 - 0.0 - - - - - - -
26/12:30am 19.1 CALM 0 0 1014.9 - 0.0 - - - - - - -
26/12:00am 19.1 CALM 0 0 1015.1 - 0.0 - - - - - - -
 
Date/Time
EST
Temp
°C
Wind Pressure Rain since
9am
mm
Weather Cloud Vis
km
Sea
Height
m
Swell
Dir  Spd
kts
Gust
kts
hPa Trend Height
m
Period
s
Dir
25/11:30pm 20.0 CALM 0 0 1015.5 - 0.0 - - - - - - -
25/11:00pm 20.3 CALM 0 0 1015.8 - 0.0 - - - - - - -
25/10:30pm 20.5 WSW 3 4 1015.9 - 0.0 - - - - - - -
25/10:00pm 20.5 WSW 3 4 1015.9 - 0.0 - - - - - - -
25/09:30pm 21.2 CALM 0 0 1015.8 - 0.0 - - - - - - -
25/09:00pm 21.6 CALM 0 0 1016.0 - 0.0 - - - - - - -
25/08:30pm 21.7 CALM 0 0 1016.0 - 0.0 - - - - - - -
25/08:00pm 22.0 CALM 0 0 1016.0 - 0.0 - - - - - - -
25/07:30pm 22.4 NNW 2 4 1015.9 - 0.0 - - - - - - -
25/07:00pm 22.9 N 4 5 1015.6 - 0.0 - - - - - - -
25/06:30pm 23.6 N 6 7 1015.1 - 0.0 - - - - - - -
25/06:00pm 24.1 NNE 8 10 1014.6 - 0.0 - - - - - - -
25/05:30pm 24.8 NNE 8 12 1014.1 - 0.0 - - - - - - -
25/05:00pm 25.9 NNE 8 12 1013.7 - 0.0 - - - - - - -
25/04:30pm 26.8 NE 7 9 1013.6 - 0.0 - - - - - - -
25/04:00pm 27.6 NE 7 10 1013.6 - 0.0 - - - - - - -
25/03:30pm 28.0 NNE 7 10 1013.4 - 0.0 - - - - - - -
25/03:00pm 28.2 NNE 7 9 1013.4 - 0.0 - - - - - - -
25/02:30pm 28.1 NNE 7 9 1013.8 - 0.0 - - - - - - -
25/02:00pm 28.0 NNE 7 10 1014.0 - 0.0 - - - - - - -
25/01:30pm 28.0 NNE 6 9 1014.3 - 0.0 - - - - - - -
25/01:00pm 28.3 NNE 6 10 1014.9 - 0.0 - - - - - - -
25/12:30pm 27.8 NNE 6 9 1015.4 - 0.0 - - - - - - -
25/12:00pm 26.9 ENE 2 5 1016.2 - 0.0 - - - - - - -
25/11:30am 27.2 E 4 6 1016.9 - 0.0 - - - - - - -
25/11:00am 26.5 ENE 5 8 1017.2 - 0.0 - - - - - - -
25/10:30am 26.0 NE 4 6 1017.8 - 0.0 - - - - - - -
25/10:00am 24.9 SE 6 9 1018.0 - 0.0 - - - - - - -
25/09:30am 24.5 S 5 7 1018.0 - 0.0 - - - - - - -
25/09:00am 23.1 S 6 8 1018.3 - 0.0 - - - - - - -
25/08:30am 21.9 S 6 9 1018.0 - 0.0 - - - - - - -
25/08:00am 20.7 SSE 7 9 1017.7 - 0.0 - - - - - - -
25/07:30am 19.8 S 7 9 1017.6 - 0.0 - - - - - - -
25/07:00am 18.6 S 5 7 1017.4 - 0.0 - - - - - - -
25/06:30am 16.6 S 4 6 1017.2 - 0.0 - - - - - - -
25/06:00am 17.0 SSW 3 4 1016.7 - 0.0 - - - - - - -
25/05:30am 17.2 S 4 5 1016.3 - 0.0 - - - - - - -
25/05:00am 16.7 SSW 3 4 1016.0 - 0.0 - - - - - - -
25/04:30am 17.1 SW 3 4 1015.9 - 0.0 - - - - - - -
25/04:00am 17.3 SW 3 3 1016.1 - 0.0 - - - - - - -
25/03:30am 17.3 SW 3 3 1016.2 - 0.0 - - - - - - -
25/03:00am 17.3 SSW 3 4 1016.2 - 0.0 - - - - - - -
25/02:30am 17.3 SW 2 3 1016.3 - 0.0 - - - - - - -
25/02:00am 17.5 SSW 2 4 1016.5 - 0.0 - - - - - - -
25/01:30am 17.6 SSW 2 3 1016.8 - 0.0 - - - - - - -
25/01:00am 18.6 S 3 4 1017.0 - 0.0 - - - - - - -
25/12:30am 18.9 S 4 4 1017.5 - 0.0 - - - - - - -
25/12:00am 18.1 SSW 2 4 1017.7 - 0.0 - - - - - - -
 
Date/Time
EST
Temp
°C
Wind Pressure Rain since
9am
mm
Weather Cloud Vis
km
Sea
Height
m
Swell
Dir  Spd
kts
Gust
kts
hPa Trend Height
m
Period
s
Dir
24/11:30pm 18.3 CALM 0 0 1017.9 - 0.0 - - - - - - -
24/11:00pm 19.2 CALM 0 0 1018.1 - 0.0 - - - - - - -
24/10:30pm 19.3 CALM 0 0 1018.3 - 0.0 - - - - - - -
24/10:00pm 19.4 CALM 0 0 1018.4 - 0.0 - - - - - - -
24/09:30pm 19.8 CALM 0 0 1018.7 - 0.0 - - - - - - -
24/09:00pm 19.9 CALM 0 0 1018.5 - 0.0 - - - - - - -
24/08:30pm 20.9 CALM 0 0 1018.4 - 0.0 - - - - - - -
24/08:00pm 21.3 CALM 0 0 1018.1 - 0.0 - - - - - - -
24/07:30pm 21.8 CALM 0 1 1017.8 - 0.0 - - - - - - -
24/07:00pm 22.5 CALM 0 1 1017.6 - 0.0 - - - - - - -
24/06:30pm 23.4 NNE 3 4 1017.2 - 0.0 - - - - - - -
24/06:00pm 23.8 NNE 4 5 1016.9 - 0.0 - - - - - - -
24/05:30pm 24.6 NNE 5 8 1016.8 - 0.0 - - - - - - -
24/05:00pm 24.8 NNE 6 9 1016.4 - 0.0 - - - - - - -
24/04:30pm 25.1 NNE 9 13 1016.3 - 0.0 - - - - - - -
24/04:00pm 25.8 NNE 10 13 1016.0 - 0.0 - - - - - - -
24/03:30pm 26.2 NE 11 15 1015.8 - 0.0 - - - - - - -
24/03:00pm 27.3 NE 7 12 1015.5 - 0.0 - - - - - - -
24/02:30pm 26.3 NE 8 11 1015.7 - 0.0 - - - - - - -
24/02:00pm 27.9 NNE 9 12 1015.8 - 0.0 - - - - - - -
24/01:30pm 28.2 NNE 9 13 1016.0 - 0.0 - - - - - - -
24/01:00pm 28.5 E 6 11 1016.4 - 0.0 - - - - - - -
24/12:30pm 28.5 ENE 7 13 1016.9 - 0.0 - - - - - - -
24/12:00pm 27.5 E 6 11 1017.4 - 0.0 - - - - - - -
24/11:30am 26.4 ESE 6 8 1017.9 - 0.0 - - - - - - -
24/11:00am 26.2 ESE 6 12 1018.5 - 0.0 - - - - - - -
24/10:30am 25.6 ESE 6 10 1018.9 - 0.0 - - - - - - -
24/10:00am 25.0 SE 7 10 1019.2 - 0.0 - - - - - - -
24/09:30am 24.9 SSE 6 10 1019.4 - 0.0 - - - - - - -
24/09:00am 23.3 SSE 7 12 1019.5 - 0.2 - - - - - - -
24/08:30am 22.7 S 7 12 1019.4 - 0.2 - - - - - - -
24/08:00am 21.6 S 8 12 1019.3 - 0.2 - - - - - - -

Other Formats:

Comma delimited format used in spreadsheet applications
http://www.bom.gov.au/fwo/IDQ60701/IDQ60701.95369.axf

JavaScript Object Notation format (JSON) in row-major order
http://www.bom.gov.au/fwo/IDQ60701/IDQ60701.95369.json